Terminal Aerodrome Forecast
Issued by NWS

Home | Current Version | Previous Version | Text Only | Print | Product List | Glossary On
Versions: 1 2 3 4 5 6 7 8 9 10 11 12 13 14 15 16
000
FTAK31 PAJN 050526
TAFAKT
TAF
PAKT 050526Z 0506/0606 VRB04KT P6SM VCSH BKN050 BKN100
     FM050900 00000KT P6SM SCT025 BKN050
     FM051800 14005KT P6SM BKN050
     FM052200 14009KT P6SM BKN070
     FM060300 14003KT P6SM BKN070=

USA.gov is the U.S. government's official web portal to all federal, state and local government web resources and services.